sensor_id;sensor_type;location;lat;lon;timestamp;P1;durP1;ratioP1;P2;durP2;ratioP2
71353;SDS011;59393;51.652;4.864;2023-03-18T00:01:37;13.90;;;6.93;;
71353;SDS011;59393;51.652;4.864;2023-03-18T00:04:03;14.53;;;6.60;;
71353;SDS011;59393;51.652;4.864;2023-03-18T00:06:29;15.25;;;7.57;;
71353;SDS011;59393;51.652;4.864;2023-03-18T00:08:55;12.85;;;6.70;;
71353;SDS011;59393;51.652;4.864;2023-03-18T00:11:22;17.05;;;7.07;;
71353;SDS011;59393;51.652;4.864;2023-03-18T00:13:48;14.57;;;7.00;;
71353;SDS011;59393;51.652;4.864;2023-03-18T00:16:15;16.73;;;8.17;;
71353;SDS011;59393;51.652;4.864;2023-03-18T00:18:41;12.80;;;7.05;;
71353;SDS011;59393;51.652;4.864;2023-03-18T00:21:07;16.58;;;7.43;;
71353;SDS011;59393;51.652;4.864;2023-03-18T00:23:34;15.35;;;7.40;;
71353;SDS011;59393;51.652;4.864;2023-03-18T00:26:01;18.25;;;8.18;;
71353;SDS011;59393;51.652;4.864;2023-03-18T00:28:27;16.23;;;7.10;;
71353;SDS011;59393;51.652;4.864;2023-03-18T00:30:53;15.88;;;7.72;;
71353;SDS011;59393;51.652;4.864;2023-03-18T00:33:20;18.52;;;7.18;;
71353;SDS011;59393;51.652;4.864;2023-03-18T00:35:47;18.80;;;8.20;;
71353;SDS011;59393;51.652;4.864;2023-03-18T00:38:14;16.02;;;6.88;;
71353;SDS011;59393;51.652;4.864;2023-03-18T00:40:48;14.37;;;7.13;;
71353;SDS011;59393;51.652;4.864;2023-03-18T00:43:21;15.80;;;7.63;;
71353;SDS011;59393;51.652;4.864;2023-03-18T00:45:47;14.52;;;7.00;;
71353;SDS011;59393;51.652;4.864;2023-03-18T00:48:14;15.23;;;7.55;;
71353;SDS011;59393;51.652;4.864;2023-03-18T00:50:40;14.00;;;6.88;;
71353;SDS011;59393;51.652;4.864;2023-03-18T00:53:07;16.27;;;7.40;;
71353;SDS011;59393;51.652;4.864;2023-03-18T00:55:33;14.60;;;7.25;;
71353;SDS011;59393;51.652;4.864;2023-03-18T00:57:59;13.18;;;6.65;;
71353;SDS011;59393;51.652;4.864;2023-03-18T01:00:25;15.50;;;7.28;;
71353;SDS011;59393;51.652;4.864;2023-03-18T01:02:52;18.02;;;7.40;;
71353;SDS011;59393;51.652;4.864;2023-03-18T01:05:19;12.53;;;6.27;;
71353;SDS011;59393;51.652;4.864;2023-03-18T01:07:45;15.50;;;6.90;;
71353;SDS011;59393;51.652;4.864;2023-03-18T01:10:12;11.45;;;6.22;;
71353;SDS011;59393;51.652;4.864;2023-03-18T01:12:39;15.27;;;6.45;;
71353;SDS011;59393;51.652;4.864;2023-03-18T01:15:07;15.13;;;6.50;;
71353;SDS011;59393;51.652;4.864;2023-03-18T01:17:33;17.50;;;6.87;;
71353;SDS011;59393;51.652;4.864;2023-03-18T01:19:59;12.73;;;6.30;;
71353;SDS011;59393;51.652;4.864;2023-03-18T01:22:27;12.82;;;6.13;;
71353;SDS011;59393;51.652;4.864;2023-03-18T01:24:53;19.15;;;7.18;;
71353;SDS011;59393;51.652;4.864;2023-03-18T01:27:21;15.20;;;6.07;;
71353;SDS011;59393;51.652;4.864;2023-03-18T01:29:48;12.40;;;6.17;;
71353;SDS011;59393;51.652;4.864;2023-03-18T01:32:15;13.27;;;7.15;;
71353;SDS011;59393;51.652;4.864;2023-03-18T01:34:42;15.50;;;5.63;;
71353;SDS011;59393;51.652;4.864;2023-03-18T01:37:08;15.23;;;6.88;;
71353;SDS011;59393;51.652;4.864;2023-03-18T01:39:35;17.40;;;6.68;;
71353;SDS011;59393;51.652;4.864;2023-03-18T01:42:01;13.53;;;6.53;;
71353;SDS011;59393;51.652;4.864;2023-03-18T01:44:27;14.52;;;6.30;;
71353;SDS011;59393;51.652;4.864;2023-03-18T01:46:54;14.32;;;6.43;;
71353;SDS011;59393;51.652;4.864;2023-03-18T01:49:22;14.38;;;4.75;;
71353;SDS011;59393;51.652;4.864;2023-03-18T01:51:50;14.60;;;6.82;;
71353;SDS011;59393;51.652;4.864;2023-03-18T01:54:17;14.23;;;6.53;;
71353;SDS011;59393;51.652;4.864;2023-03-18T01:56:44;16.77;;;6.72;;
71353;SDS011;59393;51.652;4.864;2023-03-18T01:59:11;12.98;;;4.55;;
71353;SDS011;59393;51.652;4.864;2023-03-18T02:01:43;15.50;;;6.38;;
71353;SDS011;59393;51.652;4.864;2023-03-18T02:04:12;13.52;;;5.93;;
71353;SDS011;59393;51.652;4.864;2023-03-18T02:06:39;15.65;;;6.63;;
71353;SDS011;59393;51.652;4.864;2023-03-18T02:09:06;15.35;;;6.85;;
71353;SDS011;59393;51.652;4.864;2023-03-18T02:11:34;13.50;;;6.32;;
71353;SDS011;59393;51.652;4.864;2023-03-18T02:14:00;15.05;;;6.35;;
71353;SDS011;59393;51.652;4.864;2023-03-18T02:16:36;16.20;;;6.50;;
71353;SDS011;59393;51.652;4.864;2023-03-18T02:19:07;15.70;;;6.20;;
71353;SDS011;59393;51.652;4.864;2023-03-18T02:27:00;11.45;;;6.22;;
71353;SDS011;59393;51.652;4.864;2023-03-18T02:29:27;14.20;;;6.28;;
71353;SDS011;59393;51.652;4.864;2023-03-18T02:31:55;15.47;;;6.87;;
71353;SDS011;59393;51.652;4.864;2023-03-18T02:34:25;13.18;;;5.97;;
71353;SDS011;59393;51.652;4.864;2023-03-18T02:36:51;14.25;;;5.85;;
71353;SDS011;59393;51.652;4.864;2023-03-18T02:39:17;14.30;;;6.10;;
71353;SDS011;59393;51.652;4.864;2023-03-18T02:41:43;14.02;;;6.13;;
71353;SDS011;59393;51.652;4.864;2023-03-18T02:44:10;14.70;;;6.10;;
71353;SDS011;59393;51.652;4.864;2023-03-18T02:46:43;16.55;;;6.13;;
71353;SDS011;59393;51.652;4.864;2023-03-18T02:49:13;14.25;;;6.30;;
71353;SDS011;59393;51.652;4.864;2023-03-18T02:51:39;12.40;;;6.35;;
71353;SDS011;59393;51.652;4.864;2023-03-18T02:54:07;17.20;;;6.10;;
71353;SDS011;59393;51.652;4.864;2023-03-18T02:56:34;14.67;;;6.13;;
71353;SDS011;59393;51.652;4.864;2023-03-18T02:59:00;14.38;;;5.88;;
71353;SDS011;59393;51.652;4.864;2023-03-18T03:01:27;14.75;;;5.78;;
71353;SDS011;59393;51.652;4.864;2023-03-18T03:03:53;15.15;;;6.45;;
71353;SDS011;59393;51.652;4.864;2023-03-18T03:06:20;15.88;;;6.30;;
71353;SDS011;59393;51.652;4.864;2023-03-18T03:08:46;13.95;;;5.95;;
71353;SDS011;59393;51.652;4.864;2023-03-18T03:11:12;13.20;;;5.38;;
71353;SDS011;59393;51.652;4.864;2023-03-18T03:13:39;14.55;;;5.22;;
71353;SDS011;59393;51.652;4.864;2023-03-18T03:16:05;12.02;;;5.13;;
71353;SDS011;59393;51.652;4.864;2023-03-18T03:18:32;16.08;;;5.70;;
71353;SDS011;59393;51.652;4.864;2023-03-18T03:20:59;11.27;;;5.00;;
71353;SDS011;59393;51.652;4.864;2023-03-18T03:23:26;9.48;;;5.13;;
71353;SDS011;59393;51.652;4.864;2023-03-18T03:25:52;14.05;;;5.55;;
71353;SDS011;59393;51.652;4.864;2023-03-18T03:28:18;13.45;;;5.97;;
71353;SDS011;59393;51.652;4.864;2023-03-18T03:30:45;11.68;;;5.40;;
71353;SDS011;59393;51.652;4.864;2023-03-18T03:33:11;11.52;;;5.20;;
71353;SDS011;59393;51.652;4.864;2023-03-18T03:35:37;12.70;;;6.10;;
71353;SDS011;59393;51.652;4.864;2023-03-18T03:38:03;18.00;;;6.40;;
71353;SDS011;59393;51.652;4.864;2023-03-18T03:40:29;13.48;;;5.82;;
71353;SDS011;59393;51.652;4.864;2023-03-18T03:42:55;8.83;;;4.63;;
71353;SDS011;59393;51.652;4.864;2023-03-18T03:45:21;13.38;;;5.65;;
71353;SDS011;59393;51.652;4.864;2023-03-18T03:47:48;16.70;;;6.43;;
71353;SDS011;59393;51.652;4.864;2023-03-18T03:50:16;13.13;;;5.95;;
71353;SDS011;59393;51.652;4.864;2023-03-18T03:52:42;11.48;;;5.80;;
71353;SDS011;59393;51.652;4.864;2023-03-18T03:55:10;11.45;;;5.82;;
71353;SDS011;59393;51.652;4.864;2023-03-18T03:57:37;13.63;;;5.45;;
71353;SDS011;59393;51.652;4.864;2023-03-18T04:00:04;17.00;;;5.80;;
71353;SDS011;59393;51.652;4.864;2023-03-18T04:02:32;12.30;;;5.68;;
71353;SDS011;59393;51.652;4.864;2023-03-18T04:04:58;13.32;;;6.57;;
71353;SDS011;59393;51.652;4.864;2023-03-18T04:07:24;14.37;;;5.80;;
71353;SDS011;59393;51.652;4.864;2023-03-18T04:09:51;16.45;;;6.50;;
71353;SDS011;59393;51.652;4.864;2023-03-18T04:12:17;13.98;;;5.80;;
71353;SDS011;59393;51.652;4.864;2023-03-18T04:14:43;13.13;;;5.57;;
71353;SDS011;59393;51.652;4.864;2023-03-18T04:17:11;13.80;;;5.95;;
71353;SDS011;59393;51.652;4.864;2023-03-18T04:19:37;14.35;;;6.60;;
71353;SDS011;59393;51.652;4.864;2023-03-18T04:22:03;13.10;;;5.97;;
71353;SDS011;59393;51.652;4.864;2023-03-18T04:24:30;13.75;;;6.25;;
71353;SDS011;59393;51.652;4.864;2023-03-18T04:26:56;17.95;;;7.22;;
71353;SDS011;59393;51.652;4.864;2023-03-18T04:29:22;17.38;;;7.38;;
71353;SDS011;59393;51.652;4.864;2023-03-18T04:31:49;17.45;;;7.85;;
71353;SDS011;59393;51.652;4.864;2023-03-18T04:34:15;17.97;;;6.97;;
71353;SDS011;59393;51.652;4.864;2023-03-18T04:36:41;14.85;;;7.15;;
71353;SDS011;59393;51.652;4.864;2023-03-18T04:39:07;15.48;;;7.40;;
71353;SDS011;59393;51.652;4.864;2023-03-18T04:41:33;13.95;;;7.97;;
71353;SDS011;59393;51.652;4.864;2023-03-18T04:44:01;13.53;;;7.30;;
71353;SDS011;59393;51.652;4.864;2023-03-18T04:46:27;20.65;;;7.93;;
71353;SDS011;59393;51.652;4.864;2023-03-18T04:48:54;17.55;;;7.38;;
71353;SDS011;59393;51.652;4.864;2023-03-18T04:51:22;17.60;;;7.32;;
71353;SDS011;59393;51.652;4.864;2023-03-18T04:53:48;17.50;;;6.85;;
71353;SDS011;59393;51.652;4.864;2023-03-18T04:56:14;19.17;;;7.83;;
71353;SDS011;59393;51.652;4.864;2023-03-18T04:58:40;14.30;;;6.60;;
71353;SDS011;59393;51.652;4.864;2023-03-18T05:01:06;16.63;;;8.20;;
71353;SDS011;59393;51.652;4.864;2023-03-18T05:03:34;18.50;;;8.27;;
71353;SDS011;59393;51.652;4.864;2023-03-18T05:06:00;16.50;;;8.23;;
71353;SDS011;59393;51.652;4.864;2023-03-18T05:08:26;17.23;;;8.23;;
71353;SDS011;59393;51.652;4.864;2023-03-18T05:10:52;17.95;;;8.02;;
71353;SDS011;59393;51.652;4.864;2023-03-18T05:13:18;18.05;;;8.40;;
71353;SDS011;59393;51.652;4.864;2023-03-18T05:15:44;19.52;;;7.88;;
71353;SDS011;59393;51.652;4.864;2023-03-18T05:18:10;19.42;;;8.75;;
71353;SDS011;59393;51.652;4.864;2023-03-18T05:20:37;13.57;;;6.10;;
71353;SDS011;59393;51.652;4.864;2023-03-18T05:23:03;23.10;;;9.13;;
71353;SDS011;59393;51.652;4.864;2023-03-18T05:25:30;20.88;;;9.32;;
71353;SDS011;59393;51.652;4.864;2023-03-18T05:27:57;17.67;;;8.05;;
71353;SDS011;59393;51.652;4.864;2023-03-18T05:30:23;17.08;;;8.25;;
71353;SDS011;59393;51.652;4.864;2023-03-18T05:32:50;14.90;;;7.83;;
71353;SDS011;59393;51.652;4.864;2023-03-18T05:35:16;17.65;;;8.65;;
71353;SDS011;59393;51.652;4.864;2023-03-18T05:37:43;18.23;;;8.93;;
71353;SDS011;59393;51.652;4.864;2023-03-18T05:40:09;16.60;;;8.68;;
71353;SDS011;59393;51.652;4.864;2023-03-18T05:42:36;19.85;;;8.20;;
71353;SDS011;59393;51.652;4.864;2023-03-18T05:45:05;16.07;;;9.03;;
71353;SDS011;59393;51.652;4.864;2023-03-18T05:47:31;20.58;;;9.60;;
71353;SDS011;59393;51.652;4.864;2023-03-18T05:49:57;22.45;;;9.45;;
71353;SDS011;59393;51.652;4.864;2023-03-18T05:52:23;21.63;;;9.63;;
71353;SDS011;59393;51.652;4.864;2023-03-18T05:54:49;19.05;;;9.30;;
71353;SDS011;59393;51.652;4.864;2023-03-18T05:57:16;21.23;;;10.37;;
71353;SDS011;59393;51.652;4.864;2023-03-18T05:59:42;18.23;;;7.75;;
71353;SDS011;59393;51.652;4.864;2023-03-18T06:02:08;21.88;;;9.77;;
71353;SDS011;59393;51.652;4.864;2023-03-18T06:04:35;16.98;;;9.23;;
71353;SDS011;59393;51.652;4.864;2023-03-18T06:07:01;18.27;;;9.45;;
71353;SDS011;59393;51.652;4.864;2023-03-18T06:09:27;21.48;;;9.60;;
71353;SDS011;59393;51.652;4.864;2023-03-18T06:11:54;25.20;;;10.35;;
71353;SDS011;59393;51.652;4.864;2023-03-18T06:14:22;20.05;;;9.52;;
71353;SDS011;59393;51.652;4.864;2023-03-18T06:16:53;19.63;;;9.77;;
71353;SDS011;59393;51.652;4.864;2023-03-18T06:19:19;20.17;;;9.03;;
71353;SDS011;59393;51.652;4.864;2023-03-18T06:21:46;21.63;;;10.20;;
71353;SDS011;59393;51.652;4.864;2023-03-18T06:24:12;17.58;;;8.05;;
71353;SDS011;59393;51.652;4.864;2023-03-18T06:26:40;18.27;;;9.30;;
71353;SDS011;59393;51.652;4.864;2023-03-18T06:29:07;17.58;;;8.35;;
71353;SDS011;59393;51.652;4.864;2023-03-18T06:31:34;22.10;;;10.23;;
71353;SDS011;59393;51.652;4.864;2023-03-18T06:34:02;20.10;;;9.15;;
71353;SDS011;59393;51.652;4.864;2023-03-18T06:36:29;21.55;;;9.50;;
71353;SDS011;59393;51.652;4.864;2023-03-18T06:38:55;20.75;;;9.77;;
71353;SDS011;59393;51.652;4.864;2023-03-18T06:41:21;25.40;;;10.82;;
71353;SDS011;59393;51.652;4.864;2023-03-18T06:43:47;20.57;;;9.03;;
71353;SDS011;59393;51.652;4.864;2023-03-18T06:46:14;22.35;;;10.98;;
71353;SDS011;59393;51.652;4.864;2023-03-18T06:48:41;23.30;;;10.45;;
71353;SDS011;59393;51.652;4.864;2023-03-18T06:51:07;21.33;;;9.30;;
71353;SDS011;59393;51.652;4.864;2023-03-18T06:53:35;20.58;;;9.75;;
71353;SDS011;59393;51.652;4.864;2023-03-18T06:56:02;23.85;;;11.07;;
71353;SDS011;59393;51.652;4.864;2023-03-18T06:58:28;22.42;;;11.73;;
71353;SDS011;59393;51.652;4.864;2023-03-18T07:00:55;21.48;;;10.82;;
71353;SDS011;59393;51.652;4.864;2023-03-18T07:03:21;24.23;;;11.50;;
71353;SDS011;59393;51.652;4.864;2023-03-18T07:05:47;19.45;;;8.00;;
71353;SDS011;59393;51.652;4.864;2023-03-18T07:08:14;21.13;;;10.50;;
71353;SDS011;59393;51.652;4.864;2023-03-18T07:10:41;21.33;;;10.73;;
71353;SDS011;59393;51.652;4.864;2023-03-18T07:13:08;18.67;;;8.43;;
71353;SDS011;59393;51.652;4.864;2023-03-18T07:15:34;17.65;;;7.70;;
71353;SDS011;59393;51.652;4.864;2023-03-18T07:18:00;22.73;;;11.57;;
71353;SDS011;59393;51.652;4.864;2023-03-18T07:20:27;20.88;;;11.30;;
71353;SDS011;59393;51.652;4.864;2023-03-18T07:22:53;24.63;;;11.70;;
71353;SDS011;59393;51.652;4.864;2023-03-18T07:25:19;24.40;;;11.57;;
71353;SDS011;59393;51.652;4.864;2023-03-18T07:27:46;20.35;;;9.45;;
71353;SDS011;59393;51.652;4.864;2023-03-18T07:30:12;23.92;;;10.77;;
71353;SDS011;59393;51.652;4.864;2023-03-18T07:32:38;23.70;;;12.07;;
71353;SDS011;59393;51.652;4.864;2023-03-18T07:35:05;23.83;;;11.00;;
71353;SDS011;59393;51.652;4.864;2023-03-18T07:37:31;22.75;;;10.57;;
71353;SDS011;59393;51.652;4.864;2023-03-18T07:39:57;27.98;;;11.73;;
71353;SDS011;59393;51.652;4.864;2023-03-18T07:42:23;20.00;;;11.00;;
71353;SDS011;59393;51.652;4.864;2023-03-18T07:44:49;20.55;;;9.85;;
71353;SDS011;59393;51.652;4.864;2023-03-18T07:47:16;20.67;;;10.60;;
71353;SDS011;59393;51.652;4.864;2023-03-18T07:49:42;21.42;;;8.27;;
71353;SDS011;59393;51.652;4.864;2023-03-18T07:52:08;12.00;;;6.38;;
71353;SDS011;59393;51.652;4.864;2023-03-18T07:54:34;19.70;;;9.23;;
71353;SDS011;59393;51.652;4.864;2023-03-18T07:57:00;25.60;;;11.10;;
71353;SDS011;59393;51.652;4.864;2023-03-18T07:59:27;22.27;;;11.43;;
71353;SDS011;59393;51.652;4.864;2023-03-18T08:01:53;23.02;;;11.15;;
71353;SDS011;59393;51.652;4.864;2023-03-18T08:04:19;21.40;;;9.73;;
71353;SDS011;59393;51.652;4.864;2023-03-18T08:06:46;19.83;;;9.73;;
71353;SDS011;59393;51.652;4.864;2023-03-18T08:09:12;17.50;;;9.88;;
71353;SDS011;59393;51.652;4.864;2023-03-18T08:11:38;18.03;;;7.23;;
71353;SDS011;59393;51.652;4.864;2023-03-18T08:14:04;14.40;;;6.70;;
71353;SDS011;59393;51.652;4.864;2023-03-18T08:16:30;16.23;;;9.07;;
71353;SDS011;59393;51.652;4.864;2023-03-18T08:18:56;16.25;;;7.90;;
71353;SDS011;59393;51.652;4.864;2023-03-18T08:21:22;16.52;;;6.20;;
71353;SDS011;59393;51.652;4.864;2023-03-18T08:23:48;13.70;;;6.77;;
71353;SDS011;59393;51.652;4.864;2023-03-18T08:26:15;16.88;;;8.35;;
71353;SDS011;59393;51.652;4.864;2023-03-18T08:28:41;17.15;;;8.88;;
71353;SDS011;59393;51.652;4.864;2023-03-18T08:31:07;19.83;;;9.77;;
71353;SDS011;59393;51.652;4.864;2023-03-18T08:33:33;18.05;;;8.13;;
71353;SDS011;59393;51.652;4.864;2023-03-18T08:35:59;19.48;;;8.43;;
71353;SDS011;59393;51.652;4.864;2023-03-18T08:38:25;17.20;;;8.30;;
71353;SDS011;59393;51.652;4.864;2023-03-18T08:40:52;21.58;;;8.35;;
71353;SDS011;59393;51.652;4.864;2023-03-18T08:43:18;15.75;;;7.53;;
71353;SDS011;59393;51.652;4.864;2023-03-18T08:45:50;15.23;;;6.73;;
71353;SDS011;59393;51.652;4.864;2023-03-18T08:48:16;16.90;;;7.68;;
71353;SDS011;59393;51.652;4.864;2023-03-18T08:50:42;15.02;;;8.50;;
71353;SDS011;59393;51.652;4.864;2023-03-18T08:53:08;14.52;;;6.55;;
71353;SDS011;59393;51.652;4.864;2023-03-18T08:55:35;12.63;;;5.82;;
71353;SDS011;59393;51.652;4.864;2023-03-18T08:58:02;13.57;;;7.35;;
71353;SDS011;59393;51.652;4.864;2023-03-18T09:00:31;15.77;;;6.50;;
71353;SDS011;59393;51.652;4.864;2023-03-18T09:02:57;19.73;;;8.15;;
71353;SDS011;59393;51.652;4.864;2023-03-18T09:05:23;16.88;;;6.78;;
71353;SDS011;59393;51.652;4.864;2023-03-18T09:07:50;15.65;;;8.02;;
71353;SDS011;59393;51.652;4.864;2023-03-18T09:10:17;13.45;;;7.63;;
71353;SDS011;59393;51.652;4.864;2023-03-18T09:12:43;16.25;;;7.60;;
71353;SDS011;59393;51.652;4.864;2023-03-18T09:15:10;13.82;;;6.53;;
71353;SDS011;59393;51.652;4.864;2023-03-18T09:17:37;17.67;;;7.13;;
71353;SDS011;59393;51.652;4.864;2023-03-18T09:20:07;11.55;;;4.35;;
71353;SDS011;59393;51.652;4.864;2023-03-18T09:22:33;10.55;;;5.47;;
71353;SDS011;59393;51.652;4.864;2023-03-18T09:25:00;16.50;;;7.47;;
71353;SDS011;59393;51.652;4.864;2023-03-18T09:27:26;13.07;;;5.72;;
71353;SDS011;59393;51.652;4.864;2023-03-18T09:29:52;16.17;;;6.10;;
71353;SDS011;59393;51.652;4.864;2023-03-18T09:32:18;11.68;;;6.03;;
71353;SDS011;59393;51.652;4.864;2023-03-18T09:34:44;12.25;;;6.07;;
71353;SDS011;59393;51.652;4.864;2023-03-18T09:37:10;11.75;;;6.32;;
71353;SDS011;59393;51.652;4.864;2023-03-18T09:39:38;12.35;;;5.50;;
71353;SDS011;59393;51.652;4.864;2023-03-18T09:44:56;11.55;;;4.57;;
71353;SDS011;59393;51.652;4.864;2023-03-18T09:53:07;10.60;;;4.78;;
71353;SDS011;59393;51.652;4.864;2023-03-18T09:58:12;13.65;;;4.35;;
71353;SDS011;59393;51.652;4.864;2023-03-18T10:00:40;8.80;;;3.90;;
71353;SDS011;59393;51.652;4.864;2023-03-18T10:05:36;10.82;;;4.55;;
71353;SDS011;59393;51.652;4.864;2023-03-18T10:10:51;9.07;;;3.70;;
71353;SDS011;59393;51.652;4.864;2023-03-18T10:13:30;9.02;;;3.22;;
71353;SDS011;59393;51.652;4.864;2023-03-18T10:15:58;7.97;;;3.63;;
71353;SDS011;59393;51.652;4.864;2023-03-18T10:18:36;9.57;;;4.15;;
71353;SDS011;59393;51.652;4.864;2023-03-18T10:26:04;7.00;;;3.30;;
71353;SDS011;59393;51.652;4.864;2023-03-18T10:28:33;10.90;;;3.93;;
71353;SDS011;59393;51.652;4.864;2023-03-18T10:33:58;10.75;;;3.80;;
71353;SDS011;59393;51.652;4.864;2023-03-18T10:39:16;7.45;;;3.53;;
71353;SDS011;59393;51.652;4.864;2023-03-18T10:41:42;9.33;;;3.50;;
71353;SDS011;59393;51.652;4.864;2023-03-18T10:46:43;6.82;;;2.80;;
71353;SDS011;59393;51.652;4.864;2023-03-18T10:49:14;7.82;;;3.22;;
71353;SDS011;59393;51.652;4.864;2023-03-18T10:51:49;7.10;;;3.20;;
71353;SDS011;59393;51.652;4.864;2023-03-18T10:56:45;7.47;;;2.95;;
71353;SDS011;59393;51.652;4.864;2023-03-18T10:59:16;11.32;;;4.18;;
71353;SDS011;59393;51.652;4.864;2023-03-18T11:01:43;7.20;;;3.15;;
71353;SDS011;59393;51.652;4.864;2023-03-18T11:04:15;7.65;;;3.35;;
71353;SDS011;59393;51.652;4.864;2023-03-18T11:06:48;8.53;;;3.43;;
71353;SDS011;59393;51.652;4.864;2023-03-18T11:09:19;7.88;;;3.15;;
71353;SDS011;59393;51.652;4.864;2023-03-18T11:11:50;9.75;;;3.67;;
71353;SDS011;59393;51.652;4.864;2023-03-18T11:14:28;5.95;;;2.10;;
71353;SDS011;59393;51.652;4.864;2023-03-18T11:24:35;10.27;;;2.90;;
71353;SDS011;59393;51.652;4.864;2023-03-18T11:29:44;6.32;;;2.00;;
71353;SDS011;59393;51.652;4.864;2023-03-18T11:34:56;7.22;;;2.00;;
71353;SDS011;59393;51.652;4.864;2023-03-18T11:37:32;5.95;;;1.85;;
71353;SDS011;59393;51.652;4.864;2023-03-18T11:40:31;6.88;;;2.05;;
71353;SDS011;59393;51.652;4.864;2023-03-18T11:42:56;7.75;;;1.80;;
71353;SDS011;59393;51.652;4.864;2023-03-18T11:45:30;9.30;;;2.63;;
71353;SDS011;59393;51.652;4.864;2023-03-18T11:47:58;6.47;;;2.10;;
71353;SDS011;59393;51.652;4.864;2023-03-18T11:50:27;8.35;;;2.10;;
71353;SDS011;59393;51.652;4.864;2023-03-18T12:00:31;5.97;;;2.00;;
71353;SDS011;59393;51.652;4.864;2023-03-18T12:05:49;9.40;;;2.70;;
71353;SDS011;59393;51.652;4.864;2023-03-18T12:10:55;7.33;;;2.70;;
71353;SDS011;59393;51.652;4.864;2023-03-18T12:26:50;7.78;;;2.30;;
71353;SDS011;59393;51.652;4.864;2023-03-18T12:31:58;6.28;;;2.10;;
71353;SDS011;59393;51.652;4.864;2023-03-18T12:37:22;9.23;;;2.90;;
71353;SDS011;59393;51.652;4.864;2023-03-18T12:40:16;9.27;;;2.45;;
71353;SDS011;59393;51.652;4.864;2023-03-18T12:45:22;7.20;;;2.35;;
71353;SDS011;59393;51.652;4.864;2023-03-18T12:47:59;4.43;;;1.73;;
71353;SDS011;59393;51.652;4.864;2023-03-18T12:50:30;6.97;;;2.13;;
71353;SDS011;59393;51.652;4.864;2023-03-18T12:53:01;7.15;;;2.13;;
71353;SDS011;59393;51.652;4.864;2023-03-18T12:58:09;6.32;;;1.80;;
71353;SDS011;59393;51.652;4.864;2023-03-18T13:00:51;4.82;;;1.40;;
71353;SDS011;59393;51.652;4.864;2023-03-18T13:05:49;5.93;;;1.45;;
71353;SDS011;59393;51.652;4.864;2023-03-18T13:08:20;5.03;;;1.73;;
71353;SDS011;59393;51.652;4.864;2023-03-18T13:10:50;4.65;;;1.42;;
71353;SDS011;59393;51.652;4.864;2023-03-18T13:13:18;4.45;;;1.35;;
71353;SDS011;59393;51.652;4.864;2023-03-18T13:15:54;8.53;;;1.60;;
71353;SDS011;59393;51.652;4.864;2023-03-18T13:18:37;4.40;;;1.30;;
71353;SDS011;59393;51.652;4.864;2023-03-18T13:21:04;4.78;;;1.42;;
71353;SDS011;59393;51.652;4.864;2023-03-18T13:26:16;5.75;;;1.63;;
71353;SDS011;59393;51.652;4.864;2023-03-18T13:31:34;5.10;;;2.10;;
71353;SDS011;59393;51.652;4.864;2023-03-18T13:39:16;9.73;;;2.25;;
71353;SDS011;59393;51.652;4.864;2023-03-18T13:44:15;5.93;;;2.47;;
71353;SDS011;59393;51.652;4.864;2023-03-18T13:46:45;8.43;;;2.00;;
71353;SDS011;59393;51.652;4.864;2023-03-18T13:49:18;5.47;;;1.70;;
71353;SDS011;59393;51.652;4.864;2023-03-18T13:51:49;6.27;;;1.70;;
71353;SDS011;59393;51.652;4.864;2023-03-18T13:54:15;5.80;;;1.65;;
71353;SDS011;59393;51.652;4.864;2023-03-18T14:01:56;5.30;;;1.70;;
71353;SDS011;59393;51.652;4.864;2023-03-18T14:04:31;7.30;;;2.00;;
71353;SDS011;59393;51.652;4.864;2023-03-18T14:09:33;3.80;;;1.27;;
71353;SDS011;59393;51.652;4.864;2023-03-18T14:12:15;4.78;;;1.45;;
71353;SDS011;59393;51.652;4.864;2023-03-18T14:17:21;5.07;;;1.70;;
71353;SDS011;59393;51.652;4.864;2023-03-18T14:19:52;3.88;;;1.45;;
71353;SDS011;59393;51.652;4.864;2023-03-18T14:22:22;6.25;;;1.92;;
71353;SDS011;59393;51.652;4.864;2023-03-18T14:27:54;5.03;;;1.50;;
71353;SDS011;59393;51.652;4.864;2023-03-18T14:30:38;5.47;;;1.70;;
71353;SDS011;59393;51.652;4.864;2023-03-18T14:33:28;5.75;;;1.58;;
71353;SDS011;59393;51.652;4.864;2023-03-18T14:35:58;10.55;;;2.42;;
71353;SDS011;59393;51.652;4.864;2023-03-18T14:41:00;5.20;;;1.50;;
71353;SDS011;59393;51.652;4.864;2023-03-18T14:43:39;4.87;;;1.50;;
71353;SDS011;59393;51.652;4.864;2023-03-18T14:46:07;4.65;;;1.50;;
71353;SDS011;59393;51.652;4.864;2023-03-18T14:48:41;4.05;;;1.35;;
71353;SDS011;59393;51.652;4.864;2023-03-18T14:51:12;5.60;;;1.30;;
71353;SDS011;59393;51.652;4.864;2023-03-18T14:53:45;6.38;;;1.40;;
71353;SDS011;59393;51.652;4.864;2023-03-18T14:56:24;5.67;;;1.30;;
71353;SDS011;59393;51.652;4.864;2023-03-18T14:58:53;4.97;;;1.50;;
71353;SDS011;59393;51.652;4.864;2023-03-18T15:01:24;4.15;;;1.40;;
71353;SDS011;59393;51.652;4.864;2023-03-18T15:03:52;4.45;;;1.30;;
71353;SDS011;59393;51.652;4.864;2023-03-18T15:06:21;5.45;;;1.15;;
71353;SDS011;59393;51.652;4.864;2023-03-18T15:08:49;4.67;;;1.10;;
71353;SDS011;59393;51.652;4.864;2023-03-18T15:11:17;6.88;;;1.20;;
71353;SDS011;59393;51.652;4.864;2023-03-18T15:13:44;3.47;;;1.30;;
71353;SDS011;59393;51.652;4.864;2023-03-18T15:16:11;6.03;;;1.40;;
71353;SDS011;59393;51.652;4.864;2023-03-18T15:18:38;3.45;;;1.33;;
71353;SDS011;59393;51.652;4.864;2023-03-18T15:21:08;3.23;;;1.20;;
71353;SDS011;59393;51.652;4.864;2023-03-18T15:23:44;4.80;;;1.33;;
71353;SDS011;59393;51.652;4.864;2023-03-18T15:26:22;4.90;;;1.42;;
71353;SDS011;59393;51.652;4.864;2023-03-18T15:28:51;3.60;;;1.40;;
71353;SDS011;59393;51.652;4.864;2023-03-18T15:31:25;6.15;;;1.50;;
71353;SDS011;59393;51.652;4.864;2023-03-18T15:34:05;3.27;;;1.17;;
71353;SDS011;59393;51.652;4.864;2023-03-18T15:36:38;5.40;;;1.50;;
71353;SDS011;59393;51.652;4.864;2023-03-18T15:39:18;7.53;;;1.50;;
71353;SDS011;59393;51.652;4.864;2023-03-18T15:41:45;3.83;;;1.25;;
71353;SDS011;59393;51.652;4.864;2023-03-18T15:44:14;4.15;;;1.33;;
71353;SDS011;59393;51.652;4.864;2023-03-18T15:46:44;4.33;;;1.60;;
71353;SDS011;59393;51.652;4.864;2023-03-18T15:49:11;3.90;;;1.33;;
71353;SDS011;59393;51.652;4.864;2023-03-18T15:51:46;5.28;;;1.20;;
71353;SDS011;59393;51.652;4.864;2023-03-18T15:54:17;3.70;;;1.27;;
71353;SDS011;59393;51.652;4.864;2023-03-18T15:56:48;4.05;;;1.50;;
71353;SDS011;59393;51.652;4.864;2023-03-18T15:59:25;5.93;;;1.47;;
71353;SDS011;59393;51.652;4.864;2023-03-18T16:01:52;5.95;;;1.42;;
71353;SDS011;59393;51.652;4.864;2023-03-18T16:04:19;6.32;;;1.70;;
71353;SDS011;59393;51.652;4.864;2023-03-18T16:06:46;4.13;;;1.30;;
71353;SDS011;59393;51.652;4.864;2023-03-18T16:09:13;9.05;;;1.30;;
71353;SDS011;59393;51.652;4.864;2023-03-18T16:11:39;9.87;;;1.83;;
71353;SDS011;59393;51.652;4.864;2023-03-18T16:14:06;4.85;;;1.35;;
71353;SDS011;59393;51.652;4.864;2023-03-18T16:16:32;6.28;;;1.30;;
71353;SDS011;59393;51.652;4.864;2023-03-18T16:19:00;3.80;;;1.20;;
71353;SDS011;59393;51.652;4.864;2023-03-18T16:21:26;7.40;;;1.20;;
71353;SDS011;59393;51.652;4.864;2023-03-18T16:23:52;4.00;;;1.00;;
71353;SDS011;59393;51.652;4.864;2023-03-18T16:26:18;5.72;;;1.50;;
71353;SDS011;59393;51.652;4.864;2023-03-18T16:28:45;5.20;;;1.20;;
71353;SDS011;59393;51.652;4.864;2023-03-18T16:31:12;6.70;;;1.30;;
71353;SDS011;59393;51.652;4.864;2023-03-18T16:33:38;3.75;;;0.90;;
71353;SDS011;59393;51.652;4.864;2023-03-18T16:36:05;4.17;;;1.20;;
71353;SDS011;59393;51.652;4.864;2023-03-18T16:38:32;5.13;;;1.15;;
71353;SDS011;59393;51.652;4.864;2023-03-18T16:40:59;4.65;;;1.15;;
71353;SDS011;59393;51.652;4.864;2023-03-18T16:43:26;3.75;;;1.02;;